sensor_id;sensor_type;location;lat;lon;timestamp;P1;durP1;ratioP1;P2;durP2;ratioP2
77821;SDS011;67012;53.712;10.728;2024-02-16T07:10:32;4.38;;;3.05;;
77821;SDS011;67012;53.712;10.728;2024-02-16T07:12:57;3.63;;;2.77;;
77821;SDS011;67012;53.712;10.728;2024-02-16T07:15:22;6.43;;;3.50;;
77821;SDS011;67012;53.712;10.728;2024-02-16T07:17:47;5.63;;;3.40;;
77821;SDS011;67012;53.712;10.728;2024-02-16T07:20:12;4.77;;;2.80;;
77821;SDS011;67012;53.712;10.728;2024-02-16T07:22:40;3.80;;;3.00;;
77821;SDS011;67012;53.712;10.728;2024-02-16T07:25:06;4.13;;;2.50;;
77821;SDS011;67012;53.712;10.728;2024-02-16T07:27:33;4.35;;;2.58;;
77821;SDS011;67012;53.712;10.728;2024-02-16T07:29:58;3.13;;;2.80;;
77821;SDS011;67012;53.712;10.728;2024-02-16T07:32:23;3.03;;;2.20;;
77821;SDS011;67012;53.712;10.728;2024-02-16T07:34:49;4.13;;;2.67;;
77821;SDS011;67012;53.712;10.728;2024-02-16T07:37:14;4.37;;;2.47;;
77821;SDS011;67012;53.712;10.728;2024-02-16T07:39:41;3.22;;;2.60;;
77821;SDS011;67012;53.712;10.728;2024-02-16T07:42:06;3.67;;;2.35;;
77821;SDS011;67012;53.712;10.728;2024-02-16T07:44:34;2.95;;;2.67;;
77821;SDS011;67012;53.712;10.728;2024-02-16T07:46:59;3.33;;;2.70;;
77821;SDS011;67012;53.712;10.728;2024-02-16T07:49:24;4.60;;;3.10;;
77821;SDS011;67012;53.712;10.728;2024-02-16T07:51:50;2.93;;;2.63;;
77821;SDS011;67012;53.712;10.728;2024-02-16T07:54:15;5.97;;;2.60;;
77821;SDS011;67012;53.712;10.728;2024-02-16T07:56:41;3.97;;;2.42;;
77821;SDS011;67012;53.712;10.728;2024-02-16T07:59:06;4.30;;;2.83;;
77821;SDS011;67012;53.712;10.728;2024-02-16T08:01:31;4.23;;;2.53;;
77821;SDS011;67012;53.712;10.728;2024-02-16T08:03:57;4.33;;;2.57;;
77821;SDS011;67012;53.712;10.728;2024-02-16T08:06:25;3.67;;;2.40;;
77821;SDS011;67012;53.712;10.728;2024-02-16T08:08:51;2.83;;;2.00;;
77821;SDS011;67012;53.712;10.728;2024-02-16T08:11:17;3.27;;;2.17;;
77821;SDS011;67012;53.712;10.728;2024-02-16T08:13:42;2.53;;;1.98;;
77821;SDS011;67012;53.712;10.728;2024-02-16T08:16:07;2.53;;;2.30;;
77821;SDS011;67012;53.712;10.728;2024-02-16T08:18:33;5.60;;;3.00;;
77821;SDS011;67012;53.712;10.728;2024-02-16T08:20:59;4.70;;;2.20;;
77821;SDS011;67012;53.712;10.728;2024-02-16T08:23:24;3.07;;;2.53;;
77821;SDS011;67012;53.712;10.728;2024-02-16T08:25:49;3.70;;;2.85;;
77821;SDS011;67012;53.712;10.728;2024-02-16T08:28:15;4.13;;;2.27;;
77821;SDS011;67012;53.712;10.728;2024-02-16T08:30:40;6.00;;;2.30;;
77821;SDS011;67012;53.712;10.728;2024-02-16T08:33:07;3.35;;;2.28;;
77821;SDS011;67012;53.712;10.728;2024-02-16T08:35:32;3.53;;;2.15;;
77821;SDS011;67012;53.712;10.728;2024-02-16T08:37:57;4.00;;;2.30;;
77821;SDS011;67012;53.712;10.728;2024-02-16T08:40:23;3.03;;;2.50;;
77821;SDS011;67012;53.712;10.728;2024-02-16T08:42:49;2.65;;;2.15;;
77821;SDS011;67012;53.712;10.728;2024-02-16T08:45:14;6.17;;;2.57;;
77821;SDS011;67012;53.712;10.728;2024-02-16T08:47:42;4.88;;;2.08;;
77821;SDS011;67012;53.712;10.728;2024-02-16T08:50:07;4.20;;;2.37;;
77821;SDS011;67012;53.712;10.728;2024-02-16T08:52:33;1.75;;;1.65;;
77821;SDS011;67012;53.712;10.728;2024-02-16T08:54:58;2.47;;;1.60;;
77821;SDS011;67012;53.712;10.728;2024-02-16T08:57:23;2.53;;;1.60;;
77821;SDS011;67012;53.712;10.728;2024-02-16T08:59:49;1.90;;;1.70;;
77821;SDS011;67012;53.712;10.728;2024-02-16T09:02:14;2.83;;;1.97;;
77821;SDS011;67012;53.712;10.728;2024-02-16T09:04:39;2.27;;;1.97;;
77821;SDS011;67012;53.712;10.728;2024-02-16T09:07:05;3.83;;;1.98;;
77821;SDS011;67012;53.712;10.728;2024-02-16T09:09:30;3.77;;;2.00;;
77821;SDS011;67012;53.712;10.728;2024-02-16T09:11:56;3.72;;;1.60;;
77821;SDS011;67012;53.712;10.728;2024-02-16T09:14:21;2.67;;;1.65;;
77821;SDS011;67012;53.712;10.728;2024-02-16T09:16:49;3.70;;;1.70;;
77821;SDS011;67012;53.712;10.728;2024-02-16T09:19:17;3.10;;;1.70;;
77821;SDS011;67012;53.712;10.728;2024-02-16T09:21:43;3.17;;;1.80;;
77821;SDS011;67012;53.712;10.728;2024-02-16T09:24:08;3.13;;;1.50;;
77821;SDS011;67012;53.712;10.728;2024-02-16T09:26:35;2.63;;;1.73;;
77821;SDS011;67012;53.712;10.728;2024-02-16T09:29:01;2.90;;;1.52;;
77821;SDS011;67012;53.712;10.728;2024-02-16T09:31:26;2.85;;;1.60;;
77821;SDS011;67012;53.712;10.728;2024-02-16T09:33:51;2.40;;;1.48;;
77821;SDS011;67012;53.712;10.728;2024-02-16T09:36:18;2.00;;;1.50;;
77821;SDS011;67012;53.712;10.728;2024-02-16T09:38:43;1.97;;;1.43;;
77821;SDS011;67012;53.712;10.728;2024-02-16T09:41:08;2.40;;;1.57;;
77821;SDS011;67012;53.712;10.728;2024-02-16T09:43:34;1.67;;;1.57;;
77821;SDS011;67012;53.712;10.728;2024-02-16T09:45:59;1.98;;;1.60;;
77821;SDS011;67012;53.712;10.728;2024-02-16T09:48:26;2.10;;;1.55;;
77821;SDS011;67012;53.712;10.728;2024-02-16T09:50:54;2.50;;;1.92;;
77821;SDS011;67012;53.712;10.728;2024-02-16T09:53:20;4.63;;;1.83;;
77821;SDS011;67012;53.712;10.728;2024-02-16T09:55:49;4.03;;;1.80;;
77821;SDS011;67012;53.712;10.728;2024-02-16T09:58:14;2.80;;;1.75;;
77821;SDS011;67012;53.712;10.728;2024-02-16T10:00:47;2.28;;;1.67;;
77821;SDS011;67012;53.712;10.728;2024-02-16T10:03:20;1.88;;;1.45;;
77821;SDS011;67012;53.712;10.728;2024-02-16T10:05:46;4.70;;;1.73;;
77821;SDS011;67012;53.712;10.728;2024-02-16T10:08:11;2.83;;;1.60;;
77821;SDS011;67012;53.712;10.728;2024-02-16T10:10:37;2.15;;;1.50;;
77821;SDS011;67012;53.712;10.728;2024-02-16T10:13:03;3.50;;;1.60;;
77821;SDS011;67012;53.712;10.728;2024-02-16T10:15:29;3.70;;;1.55;;
77821;SDS011;67012;53.712;10.728;2024-02-16T10:18:01;5.18;;;1.73;;
77821;SDS011;67012;53.712;10.728;2024-02-16T10:20:26;2.35;;;1.33;;
77821;SDS011;67012;53.712;10.728;2024-02-16T10:25:29;1.77;;;1.27;;
77821;SDS011;67012;53.712;10.728;2024-02-16T10:27:54;1.57;;;1.40;;
77821;SDS011;67012;53.712;10.728;2024-02-16T10:30:22;2.33;;;1.35;;
77821;SDS011;67012;53.712;10.728;2024-02-16T10:32:49;2.65;;;1.50;;
77821;SDS011;67012;53.712;10.728;2024-02-16T10:35:14;2.97;;;1.67;;
77821;SDS011;67012;53.712;10.728;2024-02-16T10:37:41;2.78;;;1.67;;
77821;SDS011;67012;53.712;10.728;2024-02-16T10:40:07;2.20;;;1.80;;
77821;SDS011;67012;53.712;10.728;2024-02-16T10:42:34;1.40;;;1.30;;
77821;SDS011;67012;53.712;10.728;2024-02-16T10:45:00;1.48;;;1.33;;
77821;SDS011;67012;53.712;10.728;2024-02-16T10:47:25;2.78;;;1.23;;
77821;SDS011;67012;53.712;10.728;2024-02-16T10:49:51;3.20;;;1.33;;
77821;SDS011;67012;53.712;10.728;2024-02-16T10:52:16;1.30;;;1.20;;
77821;SDS011;67012;53.712;10.728;2024-02-16T10:54:42;2.65;;;1.23;;
77821;SDS011;67012;53.712;10.728;2024-02-16T10:57:08;1.85;;;1.50;;
77821;SDS011;67012;53.712;10.728;2024-02-16T10:59:43;1.80;;;1.20;;
77821;SDS011;67012;53.712;10.728;2024-02-16T11:02:09;4.88;;;1.67;;
77821;SDS011;67012;53.712;10.728;2024-02-16T11:04:38;1.83;;;1.25;;
77821;SDS011;67012;53.712;10.728;2024-02-16T11:07:10;4.97;;;1.40;;
77821;SDS011;67012;53.712;10.728;2024-02-16T11:09:35;2.22;;;1.25;;
77821;SDS011;67012;53.712;10.728;2024-02-16T11:12:01;3.00;;;1.23;;
77821;SDS011;67012;53.712;10.728;2024-02-16T11:14:37;2.67;;;1.50;;
77821;SDS011;67012;53.712;10.728;2024-02-16T11:17:07;1.75;;;1.13;;
77821;SDS011;67012;53.712;10.728;2024-02-16T11:19:33;3.17;;;1.60;;
77821;SDS011;67012;53.712;10.728;2024-02-16T11:21:59;3.23;;;1.33;;
77821;SDS011;67012;53.712;10.728;2024-02-16T11:24:31;2.85;;;1.42;;
77821;SDS011;67012;53.712;10.728;2024-02-16T11:26:56;2.50;;;1.40;;
77821;SDS011;67012;53.712;10.728;2024-02-16T11:29:22;1.97;;;1.20;;
77821;SDS011;67012;53.712;10.728;2024-02-16T11:31:47;3.05;;;1.30;;
77821;SDS011;67012;53.712;10.728;2024-02-16T11:34:22;2.85;;;1.30;;
77821;SDS011;67012;53.712;10.728;2024-02-16T11:36:48;2.63;;;1.27;;
77821;SDS011;67012;53.712;10.728;2024-02-16T11:39:13;3.57;;;1.30;;
77821;SDS011;67012;53.712;10.728;2024-02-16T11:44:06;2.85;;;1.10;;
77821;SDS011;67012;53.712;10.728;2024-02-16T11:46:31;3.10;;;1.50;;
77821;SDS011;67012;53.712;10.728;2024-02-16T11:49:04;1.40;;;1.00;;
77821;SDS011;67012;53.712;10.728;2024-02-16T11:51:29;1.83;;;1.13;;
77821;SDS011;67012;53.712;10.728;2024-02-16T11:53:55;1.57;;;1.30;;
77821;SDS011;67012;53.712;10.728;2024-02-16T11:56:23;3.05;;;1.40;;
77821;SDS011;67012;53.712;10.728;2024-02-16T11:58:49;2.00;;;1.25;;
77821;SDS011;67012;53.712;10.728;2024-02-16T12:01:14;2.42;;;1.35;;
77821;SDS011;67012;53.712;10.728;2024-02-16T12:03:41;7.22;;;1.70;;
77821;SDS011;67012;53.712;10.728;2024-02-16T12:06:06;2.42;;;1.30;;
77821;SDS011;67012;53.712;10.728;2024-02-16T12:08:32;3.23;;;1.33;;
77821;SDS011;67012;53.712;10.728;2024-02-16T12:10:58;2.28;;;1.50;;
77821;SDS011;67012;53.712;10.728;2024-02-16T12:13:23;3.27;;;1.70;;
77821;SDS011;67012;53.712;10.728;2024-02-16T12:15:49;3.10;;;1.30;;
77821;SDS011;67012;53.712;10.728;2024-02-16T12:18:24;2.13;;;1.50;;
77821;SDS011;67012;53.712;10.728;2024-02-16T12:20:59;2.00;;;1.30;;
77821;SDS011;67012;53.712;10.728;2024-02-16T12:23:25;4.70;;;1.35;;
77821;SDS011;67012;53.712;10.728;2024-02-16T12:25:50;2.53;;;1.17;;
77821;SDS011;67012;53.712;10.728;2024-02-16T12:28:15;2.33;;;1.37;;
77821;SDS011;67012;53.712;10.728;2024-02-16T12:30:40;2.40;;;1.07;;
77821;SDS011;67012;53.712;10.728;2024-02-16T12:33:05;3.23;;;1.23;;
77821;SDS011;67012;53.712;10.728;2024-02-16T12:35:31;2.53;;;1.33;;
77821;SDS011;67012;53.712;10.728;2024-02-16T12:37:56;3.23;;;1.57;;
77821;SDS011;67012;53.712;10.728;2024-02-16T12:40:22;2.47;;;1.40;;
77821;SDS011;67012;53.712;10.728;2024-02-16T12:42:47;3.03;;;1.40;;
77821;SDS011;67012;53.712;10.728;2024-02-16T12:45:13;3.00;;;1.25;;
77821;SDS011;67012;53.712;10.728;2024-02-16T12:47:38;1.45;;;1.00;;
77821;SDS011;67012;53.712;10.728;2024-02-16T12:50:03;3.33;;;1.50;;
77821;SDS011;67012;53.712;10.728;2024-02-16T12:52:29;2.80;;;1.25;;
77821;SDS011;67012;53.712;10.728;2024-02-16T12:54:54;1.60;;;1.10;;
77821;SDS011;67012;53.712;10.728;2024-02-16T12:57:23;2.72;;;1.23;;
77821;SDS011;67012;53.712;10.728;2024-02-16T12:59:48;1.83;;;1.33;;
77821;SDS011;67012;53.712;10.728;2024-02-16T13:02:14;2.40;;;1.35;;
77821;SDS011;67012;53.712;10.728;2024-02-16T13:04:39;1.70;;;1.60;;
77821;SDS011;67012;53.712;10.728;2024-02-16T13:07:05;2.53;;;1.63;;
77821;SDS011;67012;53.712;10.728;2024-02-16T13:09:30;4.18;;;1.90;;
77821;SDS011;67012;53.712;10.728;2024-02-16T13:11:55;3.63;;;1.40;;
77821;SDS011;67012;53.712;10.728;2024-02-16T13:14:21;4.50;;;1.83;;
77821;SDS011;67012;53.712;10.728;2024-02-16T13:16:46;2.85;;;1.35;;
77821;SDS011;67012;53.712;10.728;2024-02-16T13:19:12;3.15;;;1.58;;
77821;SDS011;67012;53.712;10.728;2024-02-16T13:21:38;2.33;;;2.08;;
77821;SDS011;67012;53.712;10.728;2024-02-16T13:24:03;5.53;;;2.37;;
77821;SDS011;67012;53.712;10.728;2024-02-16T13:26:29;5.53;;;2.05;;
77821;SDS011;67012;53.712;10.728;2024-02-16T13:28:54;4.00;;;1.67;;
77821;SDS011;67012;53.712;10.728;2024-02-16T13:31:20;3.30;;;1.70;;
77821;SDS011;67012;53.712;10.728;2024-02-16T13:33:45;2.38;;;1.60;;
77821;SDS011;67012;53.712;10.728;2024-02-16T13:36:11;4.17;;;1.73;;
77821;SDS011;67012;53.712;10.728;2024-02-16T13:38:36;3.63;;;1.50;;
77821;SDS011;67012;53.712;10.728;2024-02-16T13:41:01;3.25;;;1.67;;
77821;SDS011;67012;53.712;10.728;2024-02-16T13:43:27;4.70;;;1.90;;
77821;SDS011;67012;53.712;10.728;2024-02-16T13:45:53;3.03;;;1.75;;
77821;SDS011;67012;53.712;10.728;2024-02-16T13:48:19;3.65;;;2.03;;
77821;SDS011;67012;53.712;10.728;2024-02-16T13:50:45;2.53;;;1.90;;
77821;SDS011;67012;53.712;10.728;2024-02-16T13:53:11;3.05;;;1.73;;
77821;SDS011;67012;53.712;10.728;2024-02-16T13:55:36;2.92;;;1.65;;
77821;SDS011;67012;53.712;10.728;2024-02-16T13:58:01;3.27;;;2.10;;
77821;SDS011;67012;53.712;10.728;2024-02-16T14:00:26;3.77;;;1.93;;
77821;SDS011;67012;53.712;10.728;2024-02-16T14:02:51;4.73;;;2.10;;
77821;SDS011;67012;53.712;10.728;2024-02-16T14:05:17;2.37;;;1.60;;
77821;SDS011;67012;53.712;10.728;2024-02-16T14:07:42;4.97;;;2.00;;
77821;SDS011;67012;53.712;10.728;2024-02-16T14:10:07;5.17;;;2.20;;
77821;SDS011;67012;53.712;10.728;2024-02-16T14:12:33;4.13;;;1.80;;
77821;SDS011;67012;53.712;10.728;2024-02-16T14:14:58;3.63;;;1.97;;
77821;SDS011;67012;53.712;10.728;2024-02-16T14:17:23;5.70;;;2.00;;
77821;SDS011;67012;53.712;10.728;2024-02-16T14:19:48;3.17;;;1.90;;
77821;SDS011;67012;53.712;10.728;2024-02-16T14:22:13;3.90;;;1.90;;
77821;SDS011;67012;53.712;10.728;2024-02-16T14:24:39;5.83;;;2.30;;
77821;SDS011;67012;53.712;10.728;2024-02-16T14:27:04;2.40;;;1.93;;
77821;SDS011;67012;53.712;10.728;2024-02-16T14:29:29;6.78;;;1.95;;
77821;SDS011;67012;53.712;10.728;2024-02-16T14:31:55;3.87;;;2.10;;
77821;SDS011;67012;53.712;10.728;2024-02-16T14:34:21;3.72;;;2.15;;
77821;SDS011;67012;53.712;10.728;2024-02-16T14:36:46;3.77;;;2.00;;
77821;SDS011;67012;53.712;10.728;2024-02-16T14:39:11;6.40;;;2.47;;
77821;SDS011;67012;53.712;10.728;2024-02-16T14:41:37;3.33;;;1.87;;
77821;SDS011;67012;53.712;10.728;2024-02-16T14:44:02;5.80;;;2.83;;
77821;SDS011;67012;53.712;10.728;2024-02-16T14:46:28;4.53;;;2.70;;
77821;SDS011;67012;53.712;10.728;2024-02-16T14:48:53;4.60;;;2.35;;
77821;SDS011;67012;53.712;10.728;2024-02-16T14:51:18;4.72;;;2.00;;
77821;SDS011;67012;53.712;10.728;2024-02-16T14:53:44;3.70;;;2.20;;
77821;SDS011;67012;53.712;10.728;2024-02-16T14:56:10;5.97;;;2.20;;
77821;SDS011;67012;53.712;10.728;2024-02-16T14:58:35;4.23;;;2.40;;
77821;SDS011;67012;53.712;10.728;2024-02-16T15:01:00;3.60;;;2.47;;
77821;SDS011;67012;53.712;10.728;2024-02-16T15:03:26;4.97;;;2.25;;
77821;SDS011;67012;53.712;10.728;2024-02-16T15:05:55;3.20;;;2.75;;
77821;SDS011;67012;53.712;10.728;2024-02-16T15:08:20;6.07;;;2.60;;
77821;SDS011;67012;53.712;10.728;2024-02-16T15:10:45;3.58;;;2.20;;
77821;SDS011;67012;53.712;10.728;2024-02-16T15:13:10;2.87;;;2.43;;
77821;SDS011;67012;53.712;10.728;2024-02-16T15:15:36;4.57;;;2.87;;
77821;SDS011;67012;53.712;10.728;2024-02-16T15:18:01;3.43;;;2.40;;
77821;SDS011;67012;53.712;10.728;2024-02-16T15:20:27;4.78;;;2.80;;
77821;SDS011;67012;53.712;10.728;2024-02-16T15:22:55;3.20;;;2.90;;
77821;SDS011;67012;53.712;10.728;2024-02-16T15:25:21;4.55;;;2.35;;
77821;SDS011;67012;53.712;10.728;2024-02-16T15:27:46;4.75;;;2.60;;
77821;SDS011;67012;53.712;10.728;2024-02-16T15:30:12;5.78;;;2.75;;
